Time;durP1;ratioP1;P1;durP2;ratioP2;P2;SDS_P1;SDS_P2;PMS_P1;PMS_P2;Temp;Humidity;BMP_temperature;BMP_pressure;BME280_temperature;BME280_humidity;BME280_pressure;Samples;Min_cycle;Max_cycle;Signal;HPM_P1;HPM_P2
2022/08/20 00:00:37;;;;;;;;;;;16.70;99.90;;;;;;4951280;29;20330;-78
2022/08/20 00:03:09;;;;;;;;;;;16.70;99.90;;;;;;4921940;29;19924;-79
2022/08/20 00:05:38;;;;;;;;;;;16.80;99.90;;;;;;4946989;28;19932;-78
2022/08/20 00:08:04;;;;;;;;;;;16.70;99.90;;;;;;4933874;29;20422;-79
2022/08/20 00:10:31;;;;;;;;;;;16.80;99.90;;;;;;4947461;29;19922;-78
2022/08/20 00:12:56;;;;;;;;;;;16.70;99.90;;;;;;4948449;29;20086;-78
2022/08/20 00:15:24;;;;;;;;;;;16.80;99.90;;;;;;4940728;28;20007;-78
2022/08/20 00:17:50;;;;;;;;;;;16.80;99.90;;;;;;4950785;29;19921;-79
2022/08/20 00:20:17;;;;;;;;;;;16.70;99.90;;;;;;4948848;28;19918;-77
2022/08/20 00:22:43;;;;;;;;;;;16.70;99.90;;;;;;4938610;28;19911;-77
2022/08/20 00:25:09;;;;;;;;;;;16.70;99.90;;;;;;4947622;28;19917;-77
2022/08/20 00:27:34;;;;;;;;;;;16.70;99.90;;;;;;4951336;28;19994;-78
2022/08/20 00:30:00;;;;;;;;;;;16.70;99.90;;;;;;4931780;29;19933;-79
2022/08/20 00:32:26;;;;;;;;;;;16.80;99.90;;;;;;4950215;28;19913;-79
2022/08/20 00:34:52;;;;;;;;;;;16.70;99.90;;;;;;4933203;28;19922;-79
2022/08/20 00:37:17;;;;;;;;;;;16.70;99.90;;;;;;4943668;29;20139;-79
2022/08/20 00:39:43;;;;;;;;;;;16.80;99.90;;;;;;4947623;29;19915;-78
2022/08/20 00:42:09;;;;;;;;;;;16.80;99.90;;;;;;4945270;28;19917;-79
2022/08/20 00:44:35;;;;;;;;;;;16.80;99.90;;;;;;4941671;28;19915;-80
2022/08/20 00:47:01;;;;;;;;;;;16.80;99.90;;;;;;4948115;29;19906;-78
2022/08/20 00:49:28;;;;;;;;;;;16.80;99.90;;;;;;4942726;28;19911;-79
2022/08/20 00:51:57;;;;;;;;;;;16.80;99.90;;;;;;4949586;28;19911;-79
2022/08/20 00:54:26;;;;;;;;;;;16.70;99.90;;;;;;4939979;28;19915;-79
2022/08/20 00:56:57;;;;;;;;;;;16.70;99.90;;;;;;4941491;28;20095;-81
2022/08/20 00:59:26;;;;;;;;;;;16.70;99.90;;;;;;4943175;28;20574;-79
2022/08/20 01:01:52;;;;;;;;;;;16.70;99.90;;;;;;4939932;28;19954;-78
2022/08/20 01:04:18;;;;;;;;;;;16.70;99.90;;;;;;4938681;28;19914;-78
2022/08/20 01:06:43;;;;;;;;;;;16.70;99.90;;;;;;4948687;28;19915;-79
2022/08/20 01:09:09;;;;;;;;;;;16.70;99.90;;;;;;4953127;29;19954;-79
2022/08/20 01:11:35;;;;;;;;;;;16.70;99.90;;;;;;4952757;28;19946;-78
2022/08/20 01:14:22;;;;;;;;;;;16.70;99.90;;;;;;4948550;29;19950;-78
2022/08/20 01:16:49;;;;;;;;;;;16.70;99.90;;;;;;4950465;28;19918;-78
2022/08/20 01:19:17;;;;;;;;;;;16.70;99.90;;;;;;4947225;28;19907;-79
2022/08/20 01:21:43;;;;;;;;;;;16.60;99.90;;;;;;4944181;28;19914;-79
2022/08/20 01:24:26;;;;;;;;;;;16.60;99.90;;;;;;4942255;29;19965;-78
2022/08/20 01:26:53;;;;;;;;;;;16.60;99.90;;;;;;4948816;29;19918;-79
2022/08/20 01:29:21;;;;;;;;;;;16.60;99.90;;;;;;4943573;28;20342;-78
2022/08/20 01:31:47;;;;;;;;;;;16.70;99.90;;;;;;4947175;29;20471;-78
2022/08/20 01:34:14;;;;;;;;;;;16.60;99.90;;;;;;4946050;28;19911;-79
2022/08/20 01:36:42;;;;;;;;;;;16.60;99.90;;;;;;4951184;29;20535;-79
2022/08/20 01:39:09;;;;;;;;;;;16.60;99.90;;;;;;4951479;28;20306;-79
2022/08/20 01:41:50;;;;;;;;;;;16.60;99.90;;;;;;4949081;29;19917;-79
2022/08/20 01:44:17;;;;;;;;;;;16.60;99.90;;;;;;4945813;28;20298;-79
2022/08/20 01:46:43;;;;;;;;;;;16.60;99.90;;;;;;4942340;29;19922;-79
2022/08/20 01:49:14;;;;;;;;;;;16.60;99.90;;;;;;4941752;29;20552;-78
2022/08/20 01:51:40;;;;;;;;;;;16.60;99.90;;;;;;4936496;28;19915;-79
2022/08/20 01:54:06;;;;;;;;;;;16.60;99.90;;;;;;4943280;28;19970;-79
2022/08/20 01:56:33;;;;;;;;;;;16.60;99.90;;;;;;4951957;29;20441;-79
2022/08/20 01:59:01;;;;;;;;;;;16.60;99.90;;;;;;4952129;28;20387;-79
2022/08/20 02:01:32;;;;;;;;;;;16.60;99.90;;;;;;4950897;29;20519;-79
2022/08/20 02:03:59;;;;;;;;;;;16.60;99.90;;;;;;4948534;28;19919;-79
2022/08/20 02:06:26;;;;;;;;;;;16.60;99.90;;;;;;4948833;29;19921;-79
2022/08/20 02:08:53;;;;;;;;;;;16.60;99.90;;;;;;4946414;28;19914;-79
2022/08/20 02:11:19;;;;;;;;;;;16.60;99.90;;;;;;4941870;29;19912;-79
2022/08/20 02:13:48;;;;;;;;;;;16.60;99.90;;;;;;4945966;28;20379;-79
2022/08/20 02:16:14;;;;;;;;;;;16.60;99.90;;;;;;4946650;28;19938;-79
2022/08/20 02:18:39;;;;;;;;;;;16.60;99.90;;;;;;4946170;28;20366;-79
2022/08/20 02:21:05;;;;;;;;;;;16.60;99.90;;;;;;4943955;28;19915;-79
2022/08/20 02:23:31;;;;;;;;;;;16.60;99.90;;;;;;4949411;28;19918;-79
2022/08/20 02:25:56;;;;;;;;;;;16.60;99.90;;;;;;4951986;29;20350;-79
2022/08/20 02:28:22;;;;;;;;;;;16.60;99.90;;;;;;4942028;29;19914;-79
2022/08/20 02:30:50;;;;;;;;;;;16.60;99.90;;;;;;4946943;29;20602;-80
2022/08/20 02:33:17;;;;;;;;;;;16.60;99.90;;;;;;4941533;29;20327;-78
2022/08/20 02:35:45;;;;;;;;;;;16.60;99.90;;;;;;4938631;29;19949;-79
2022/08/20 02:38:11;;;;;;;;;;;16.60;99.90;;;;;;4939384;28;19921;-79
2022/08/20 02:40:37;;;;;;;;;;;16.60;99.90;;;;;;4952042;29;19914;-79
2022/08/20 02:43:03;;;;;;;;;;;16.60;99.90;;;;;;4941714;28;19930;-79
2022/08/20 02:45:30;;;;;;;;;;;16.60;99.90;;;;;;4951633;28;19922;-78
2022/08/20 02:47:57;;;;;;;;;;;16.60;99.90;;;;;;4944464;29;19910;-80
2022/08/20 02:50:24;;;;;;;;;;;16.60;99.90;;;;;;4950874;29;19942;-79
2022/08/20 02:52:50;;;;;;;;;;;16.60;99.90;;;;;;4949034;28;19957;-79
2022/08/20 02:55:16;;;;;;;;;;;16.60;99.90;;;;;;4933776;29;19914;-79
2022/08/20 02:57:42;;;;;;;;;;;16.60;99.90;;;;;;4945524;28;20012;-79
2022/08/20 03:00:10;;;;;;;;;;;16.50;99.90;;;;;;4944112;28;19914;-80
2022/08/20 03:02:35;;;;;;;;;;;16.50;99.90;;;;;;4961171;28;20287;-80
2022/08/20 03:05:01;;;;;;;;;;;16.50;99.90;;;;;;4944319;28;19919;-79
2022/08/20 03:07:27;;;;;;;;;;;16.50;99.90;;;;;;4949122;29;19965;-80
2022/08/20 03:09:53;;;;;;;;;;;16.50;99.90;;;;;;4951492;28;19968;-79
2022/08/20 03:12:19;;;;;;;;;;;16.50;99.90;;;;;;4947350;28;19946;-79
2022/08/20 03:14:44;;;;;;;;;;;16.50;99.90;;;;;;4951141;28;20025;-80
2022/08/20 03:17:10;;;;;;;;;;;16.50;99.90;;;;;;4947722;29;19925;-80
2022/08/20 03:19:36;;;;;;;;;;;16.50;99.90;;;;;;4935769;29;19914;-79
2022/08/20 03:22:01;;;;;;;;;;;16.50;99.90;;;;;;4929821;28;20010;-79
2022/08/20 03:24:27;;;;;;;;;;;16.50;99.90;;;;;;4942248;28;19918;-80
2022/08/20 03:26:53;;;;;;;;;;;16.50;99.90;;;;;;4950186;28;19919;-80
2022/08/20 03:29:18;;;;;;;;;;;16.50;99.90;;;;;;4941940;29;19915;-80
2022/08/20 03:31:44;;;;;;;;;;;16.50;99.90;;;;;;4926100;29;19919;-79
2022/08/20 03:34:10;;;;;;;;;;;16.50;99.90;;;;;;4937883;29;19942;-79
2022/08/20 03:36:36;;;;;;;;;;;16.50;99.90;;;;;;4948626;28;19937;-78
2022/08/20 03:39:04;;;;;;;;;;;16.50;99.90;;;;;;4940423;29;20480;-78
2022/08/20 03:41:31;;;;;;;;;;;16.50;99.90;;;;;;4943957;29;19921;-78
2022/08/20 03:43:56;;;;;;;;;;;16.50;99.90;;;;;;4948673;28;19919;-79
2022/08/20 03:46:23;;;;;;;;;;;16.50;99.90;;;;;;4943892;28;19918;-79
2022/08/20 03:48:48;;;;;;;;;;;16.50;99.90;;;;;;4939663;29;19915;-78
2022/08/20 03:51:14;;;;;;;;;;;16.50;99.90;;;;;;4940845;28;19987;-79
2022/08/20 03:53:40;;;;;;;;;;;16.40;99.90;;;;;;4943387;28;19922;-78
2022/08/20 03:56:05;;;;;;;;;;;16.40;99.90;;;;;;4947435;29;19910;-79
2022/08/20 03:58:32;;;;;;;;;;;16.40;99.90;;;;;;4947704;29;19915;-79
2022/08/20 04:00:57;;;;;;;;;;;16.40;99.90;;;;;;4946779;29;19918;-79
2022/08/20 04:03:23;;;;;;;;;;;16.40;99.90;;;;;;4903112;29;20124;-78
2022/08/20 04:05:50;;;;;;;;;;;16.40;99.90;;;;;;4927979;28;19919;-79
2022/08/20 04:08:24;;;;;;;;;;;16.40;99.90;;;;;;4938469;29;19978;-78
2022/08/20 04:10:50;;;;;;;;;;;16.50;99.90;;;;;;4948061;28;19953;-78
2022/08/20 04:13:17;;;;;;;;;;;16.40;99.90;;;;;;4934211;29;19911;-78
2022/08/20 04:15:44;;;;;;;;;;;16.50;99.90;;;;;;4944430;29;20359;-79
2022/08/20 04:18:10;;;;;;;;;;;16.50;99.90;;;;;;4950534;29;19949;-78
2022/08/20 04:20:37;;;;;;;;;;;16.50;99.90;;;;;;4950314;28;19957;-78
2022/08/20 04:23:03;;;;;;;;;;;16.50;99.90;;;;;;4941351;28;19926;-79
2022/08/20 04:25:31;;;;;;;;;;;16.50;99.90;;;;;;4937572;29;19918;-79
2022/08/20 04:27:57;;;;;;;;;;;16.50;99.90;;;;;;4947008;28;19965;-80
2022/08/20 04:30:24;;;;;;;;;;;16.50;99.90;;;;;;4928181;29;19925;-79
2022/08/20 04:32:50;;;;;;;;;;;16.50;99.90;;;;;;4943678;28;20294;-78
2022/08/20 04:35:17;;;;;;;;;;;16.50;99.90;;;;;;4946982;28;19911;-78
2022/08/20 04:37:45;;;;;;;;;;;16.50;99.90;;;;;;4948199;29;19950;-79
2022/08/20 04:42:56;;;;;;;;;;;16.50;99.90;;;;;;4937871;29;19914;-79
2022/08/20 04:45:23;;;;;;;;;;;16.50;99.90;;;;;;4942698;29;19915;-78
2022/08/20 04:47:49;;;;;;;;;;;16.60;99.90;;;;;;4934324;29;20366;-79
2022/08/20 04:50:15;;;;;;;;;;;16.60;99.90;;;;;;4950090;28;19980;-78
2022/08/20 04:52:41;;;;;;;;;;;16.60;99.90;;;;;;4951980;28;19910;-78
2022/08/20 04:55:08;;;;;;;;;;;16.60;99.90;;;;;;4942485;28;19937;-77
2022/08/20 04:57:37;;;;;;;;;;;16.60;99.90;;;;;;4950952;28;19911;-78
2022/08/20 05:00:11;;;;;;;;;;;16.60;99.90;;;;;;4950344;29;19980;-80
2022/08/20 05:02:37;;;;;;;;;;;16.60;99.90;;;;;;4965499;28;19974;-78
2022/08/20 05:05:04;;;;;;;;;;;16.60;99.90;;;;;;4939744;29;20398;-79
2022/08/20 05:07:29;;;;;;;;;;;16.60;99.90;;;;;;4946589;29;19961;-78
2022/08/20 05:09:55;;;;;;;;;;;16.60;99.90;;;;;;4947546;28;20343;-78
2022/08/20 05:12:21;;;;;;;;;;;16.60;99.90;;;;;;4959434;28;19921;-80
2022/08/20 05:14:46;;;;;;;;;;;16.60;99.90;;;;;;4942105;28;20014;-78
2022/08/20 05:17:15;;;;;;;;;;;16.60;99.90;;;;;;4931887;29;19942;-79
2022/08/20 05:19:41;;;;;;;;;;;16.60;99.90;;;;;;4948585;28;20528;-78
2022/08/20 05:22:07;;;;;;;;;;;16.60;99.90;;;;;;4950257;28;20025;-78
2022/08/20 05:24:33;;;;;;;;;;;16.60;99.90;;;;;;4951527;28;20210;-80
2022/08/20 05:26:59;;;;;;;;;;;16.70;99.90;;;;;;4950269;28;19972;-78
2022/08/20 05:29:26;;;;;;;;;;;16.70;99.90;;;;;;4945139;29;20385;-80
2022/08/20 05:31:52;;;;;;;;;;;16.70;99.90;;;;;;4944741;28;20025;-78
2022/08/20 05:34:18;;;;;;;;;;;16.70;99.90;;;;;;4944042;28;19915;-78
2022/08/20 05:36:46;;;;;;;;;;;16.70;99.90;;;;;;4943566;29;19914;-78
2022/08/20 05:39:12;;;;;;;;;;;16.80;99.90;;;;;;4951699;28;19914;-79
2022/08/20 05:41:38;;;;;;;;;;;16.80;99.90;;;;;;4949737;29;19978;-79
2022/08/20 05:44:08;;;;;;;;;;;16.80;99.90;;;;;;4946550;28;19914;-79
2022/08/20 05:46:34;;;;;;;;;;;16.80;99.90;;;;;;4944140;29;19911;-79
2022/08/20 05:49:02;;;;;;;;;;;16.80;99.90;;;;;;4940638;29;19937;-78
2022/08/20 05:51:28;;;;;;;;;;;16.80;99.90;;;;;;4948287;29;19910;-79
2022/08/20 05:53:56;;;;;;;;;;;16.90;99.90;;;;;;4955140;28;19911;-79
2022/08/20 05:56:22;;;;;;;;;;;16.90;99.90;;;;;;4945266;29;19911;-79
2022/08/20 05:58:48;;;;;;;;;;;16.90;99.90;;;;;;4952093;29;19921;-79
2022/08/20 06:01:13;;;;;;;;;;;17.00;99.90;;;;;;4954176;28;19918;-78
2022/08/20 06:06:23;;;;;;;;;;;17.00;99.90;;;;;;4955191;28;19922;-80
2022/08/20 06:08:49;;;;;;;;;;;17.00;99.90;;;;;;4935330;28;19919;-78
2022/08/20 06:11:14;;;;;;;;;;;17.00;99.90;;;;;;4949069;29;20397;-79
2022/08/20 06:13:40;;;;;;;;;;;17.10;99.90;;;;;;4940316;28;19918;-79
2022/08/20 06:16:06;;;;;;;;;;;17.10;99.90;;;;;;4948538;29;19922;-80
2022/08/20 06:18:31;;;;;;;;;;;17.20;99.90;;;;;;4949758;29;19914;-79
2022/08/20 06:20:57;;;;;;;;;;;17.20;99.90;;;;;;4952499;28;19965;-79
2022/08/20 06:23:24;;;;;;;;;;;17.20;99.90;;;;;;4952992;28;19962;-79
2022/08/20 06:25:49;;;;;;;;;;;17.20;99.90;;;;;;4946290;28;20001;-79
2022/08/20 06:28:16;;;;;;;;;;;17.20;99.90;;;;;;4945485;28;19966;-78
2022/08/20 06:30:41;;;;;;;;;;;17.30;99.90;;;;;;4945864;28;20414;-79
2022/08/20 06:33:07;;;;;;;;;;;17.30;99.90;;;;;;4949893;28;20013;-80
2022/08/20 06:35:33;;;;;;;;;;;17.30;99.90;;;;;;4942519;29;20001;-79
2022/08/20 06:37:59;;;;;;;;;;;17.40;99.90;;;;;;4946613;28;20298;-79
2022/08/20 06:40:27;;;;;;;;;;;17.50;99.90;;;;;;4945914;28;20360;-79
2022/08/20 06:42:53;;;;;;;;;;;17.50;99.90;;;;;;4940775;28;20371;-79
2022/08/20 06:45:23;;;;;;;;;;;17.50;99.90;;;;;;4928239;29;20353;-79
2022/08/20 06:47:49;;;;;;;;;;;17.60;99.90;;;;;;4952161;29;19921;-78
2022/08/20 06:50:20;;;;;;;;;;;17.60;99.90;;;;;;4952614;29;19913;-77
2022/08/20 06:52:46;;;;;;;;;;;17.70;99.90;;;;;;4946114;28;19910;-78
2022/08/20 06:55:12;;;;;;;;;;;17.70;99.90;;;;;;4933670;29;19939;-79
2022/08/20 06:57:38;;;;;;;;;;;17.80;99.90;;;;;;4945065;28;19911;-78
2022/08/20 07:00:04;;;;;;;;;;;17.80;99.90;;;;;;4940125;29;19926;-78
2022/08/20 07:02:30;;;;;;;;;;;17.90;99.90;;;;;;4949761;28;19910;-80
2022/08/20 07:04:56;;;;;;;;;;;17.90;99.90;;;;;;4942183;29;20095;-78
2022/08/20 07:07:21;;;;;;;;;;;18.00;99.90;;;;;;4953218;29;19916;-80
2022/08/20 07:09:47;;;;;;;;;;;17.90;99.90;;;;;;4948864;29;19911;-78
2022/08/20 07:12:12;;;;;;;;;;;17.90;99.90;;;;;;4929316;29;19915;-80
2022/08/20 07:14:38;;;;;;;;;;;18.00;99.90;;;;;;4958505;29;19949;-78
2022/08/20 07:17:05;;;;;;;;;;;18.00;99.90;;;;;;4954944;29;20021;-79
2022/08/20 07:19:31;;;;;;;;;;;18.10;99.90;;;;;;4942503;29;19918;-78
2022/08/20 07:21:57;;;;;;;;;;;18.10;99.90;;;;;;4946727;28;19906;-79
2022/08/20 07:24:23;;;;;;;;;;;18.10;99.90;;;;;;4949162;29;19928;-78
2022/08/20 07:26:50;;;;;;;;;;;18.10;99.90;;;;;;4952028;29;19926;-79
2022/08/20 07:29:17;;;;;;;;;;;18.20;99.90;;;;;;4952715;28;19978;-78
2022/08/20 07:34:27;;;;;;;;;;;18.30;99.90;;;;;;4953385;28;19918;-80
2022/08/20 07:36:52;;;;;;;;;;;18.30;99.90;;;;;;4935538;28;19938;-79
2022/08/20 07:39:19;;;;;;;;;;;18.30;99.90;;;;;;4951136;29;19935;-81
2022/08/20 07:42:01;;;;;;;;;;;18.30;99.90;;;;;;4937480;29;20104;-79
2022/08/20 07:44:28;;;;;;;;;;;18.30;99.90;;;;;;4936407;29;19930;-80
2022/08/20 07:46:53;;;;;;;;;;;18.40;99.90;;;;;;4945020;28;19911;-79
2022/08/20 07:49:19;;;;;;;;;;;18.40;99.90;;;;;;4949152;29;19910;-79
2022/08/20 07:51:45;;;;;;;;;;;18.40;99.90;;;;;;4912141;29;19915;-79
2022/08/20 07:54:11;;;;;;;;;;;18.30;99.90;;;;;;4933437;28;19976;-77
2022/08/20 07:56:36;;;;;;;;;;;18.30;99.90;;;;;;4949227;28;19969;-79
2022/08/20 07:59:02;;;;;;;;;;;18.40;99.90;;;;;;4942652;28;20378;-78
2022/08/20 08:01:29;;;;;;;;;;;18.40;99.90;;;;;;4943357;29;20418;-80
2022/08/20 08:03:56;;;;;;;;;;;18.40;99.90;;;;;;4944422;28;19961;-79
2022/08/20 08:06:22;;;;;;;;;;;18.50;99.90;;;;;;4947166;28;20496;-78
2022/08/20 08:08:48;;;;;;;;;;;18.50;99.90;;;;;;4951995;28;19922;-80
2022/08/20 08:11:15;;;;;;;;;;;18.40;99.90;;;;;;4961805;28;19914;-79
2022/08/20 08:13:41;;;;;;;;;;;18.50;99.90;;;;;;4942972;28;19958;-79
2022/08/20 08:16:08;;;;;;;;;;;18.60;99.90;;;;;;4945971;29;20314;-78
2022/08/20 08:18:38;;;;;;;;;;;18.60;99.90;;;;;;4951561;28;19915;-77
2022/08/20 08:21:07;;;;;;;;;;;18.70;99.90;;;;;;4954470;28;19958;-77
2022/08/20 08:23:33;;;;;;;;;;;18.70;99.90;;;;;;4935774;29;20322;-78
2022/08/20 08:25:59;;;;;;;;;;;18.80;99.90;;;;;;4943896;29;19914;-78
2022/08/20 08:28:28;;;;;;;;;;;19.00;99.90;;;;;;4951592;29;19911;-78
2022/08/20 08:30:54;;;;;;;;;;;19.00;99.90;;;;;;4939624;29;19914;-78
2022/08/20 08:33:31;;;;;;;;;;;19.00;99.90;;;;;;4952477;28;19917;-78
2022/08/20 08:35:56;;;;;;;;;;;19.00;99.90;;;;;;4943042;29;19923;-79
2022/08/20 08:38:22;;;;;;;;;;;19.10;99.90;;;;;;4944482;28;19914;-78
2022/08/20 08:40:50;;;;;;;;;;;19.10;99.90;;;;;;4943738;29;19965;-79
2022/08/20 08:43:19;;;;;;;;;;;19.10;99.90;;;;;;4940558;28;19914;-77
2022/08/20 08:45:47;;;;;;;;;;;19.10;99.90;;;;;;4927796;29;19922;-80
2022/08/20 08:48:14;;;;;;;;;;;19.10;99.90;;;;;;4956218;28;20398;-78
2022/08/20 08:50:41;;;;;;;;;;;19.20;99.90;;;;;;4950463;28;19953;-78
2022/08/20 08:53:09;;;;;;;;;;;19.20;99.90;;;;;;4948625;28;20562;-80
2022/08/20 08:55:35;;;;;;;;;;;19.20;99.90;;;;;;4947485;28;19932;-79
2022/08/20 08:58:01;;;;;;;;;;;19.30;99.90;;;;;;4946154;28;20437;-78
2022/08/20 09:00:27;;;;;;;;;;;19.30;99.90;;;;;;4943788;28;19911;-79
2022/08/20 09:03:01;;;;;;;;;;;19.30;99.90;;;;;;4930632;28;20151;-78
2022/08/20 09:05:33;;;;;;;;;;;19.30;99.90;;;;;;4933308;29;19926;-78
2022/08/20 09:08:01;;;;;;;;;;;19.40;99.90;;;;;;4943995;28;19911;-78
2022/08/20 09:10:27;;;;;;;;;;;19.40;99.90;;;;;;4936157;29;19922;-78
2022/08/20 09:12:52;;;;;;;;;;;19.50;99.90;;;;;;4948486;28;20306;-80
2022/08/20 09:15:20;;;;;;;;;;;19.60;99.90;;;;;;4942336;29;19961;-80
2022/08/20 09:17:45;;;;;;;;;;;19.60;99.90;;;;;;4954913;28;19914;-77
2022/08/20 09:20:11;;;;;;;;;;;19.70;99.90;;;;;;4941521;29;19917;-78
2022/08/20 09:22:37;;;;;;;;;;;19.70;99.90;;;;;;4943221;28;19910;-78
2022/08/20 09:25:03;;;;;;;;;;;19.70;99.90;;;;;;4947929;28;19975;-78
2022/08/20 09:27:30;;;;;;;;;;;19.80;99.90;;;;;;4945865;29;19921;-77
2022/08/20 09:29:55;;;;;;;;;;;19.80;99.90;;;;;;4951042;29;19914;-78
2022/08/20 09:32:22;;;;;;;;;;;19.80;99.90;;;;;;4951082;28;20381;-79
2022/08/20 09:34:50;;;;;;;;;;;19.90;99.90;;;;;;4942302;29;19914;-78
2022/08/20 09:37:16;;;;;;;;;;;20.00;99.90;;;;;;4953763;29;20375;-79
2022/08/20 09:39:42;;;;;;;;;;;20.00;99.90;;;;;;4945111;29;19918;-78
2022/08/20 09:42:19;;;;;;;;;;;20.20;99.90;;;;;;4944991;28;19914;-79
2022/08/20 09:44:45;;;;;;;;;;;20.20;99.90;;;;;;4940336;28;19925;-79
2022/08/20 09:47:11;;;;;;;;;;;20.30;99.90;;;;;;4955931;28;19910;-79
2022/08/20 09:49:36;;;;;;;;;;;20.40;99.90;;;;;;4953855;28;19921;-78
2022/08/20 09:52:03;;;;;;;;;;;20.50;99.90;;;;;;4954995;28;19937;-79
2022/08/20 09:54:29;;;;;;;;;;;20.50;99.90;;;;;;4924784;28;19922;-79
2022/08/20 09:57:04;;;;;;;;;;;20.50;99.90;;;;;;4955630;28;19941;-79
2022/08/20 09:59:30;;;;;;;;;;;20.60;99.90;;;;;;4947336;29;20005;-79
2022/08/20 10:01:55;;;;;;;;;;;20.60;99.90;;;;;;4953294;28;20386;-79
2022/08/20 10:04:21;;;;;;;;;;;20.60;99.90;;;;;;4947444;29;19987;-78
2022/08/20 10:06:47;;;;;;;;;;;20.60;99.90;;;;;;4952333;28;19921;-77
2022/08/20 10:09:13;;;;;;;;;;;20.60;99.90;;;;;;4938699;29;19946;-78
2022/08/20 10:11:39;;;;;;;;;;;20.60;99.90;;;;;;4951522;29;19915;-79
2022/08/20 10:14:04;;;;;;;;;;;20.70;99.90;;;;;;4936904;29;19917;-79
2022/08/20 10:16:30;;;;;;;;;;;20.80;99.90;;;;;;4948324;29;20375;-79
2022/08/20 10:18:56;;;;;;;;;;;20.90;99.90;;;;;;4951124;28;19914;-78
2022/08/20 10:21:22;;;;;;;;;;;20.90;99.90;;;;;;4951302;28;19917;-79
2022/08/20 10:23:48;;;;;;;;;;;21.00;99.90;;;;;;4953563;28;19922;-78
2022/08/20 10:26:14;;;;;;;;;;;21.00;99.90;;;;;;4949410;29;19926;-78
2022/08/20 10:28:40;;;;;;;;;;;21.00;99.90;;;;;;4955469;28;19914;-79
2022/08/20 10:31:06;;;;;;;;;;;21.00;99.90;;;;;;4947349;28;20359;-78
2022/08/20 10:33:32;;;;;;;;;;;21.00;99.90;;;;;;4948706;28;20009;-79
2022/08/20 10:36:04;;;;;;;;;;;20.80;99.90;;;;;;4947925;28;19948;-78
2022/08/20 10:38:29;;;;;;;;;;;20.80;99.90;;;;;;4947170;28;19910;-78
2022/08/20 10:40:55;;;;;;;;;;;20.80;99.90;;;;;;4950891;28;20470;-80
2022/08/20 10:43:21;;;;;;;;;;;20.80;99.90;;;;;;4948247;28;20411;-79
2022/08/20 10:45:47;;;;;;;;;;;20.80;99.90;;;;;;4947325;29;19973;-79
2022/08/20 10:48:12;;;;;;;;;;;20.60;99.90;;;;;;4936846;29;19918;-79
2022/08/20 10:50:38;;;;;;;;;;;20.70;99.90;;;;;;4943129;28;19910;-79
2022/08/20 10:53:04;;;;;;;;;;;20.70;99.90;;;;;;4946147;28;19957;-79
2022/08/20 10:55:29;;;;;;;;;;;20.70;99.90;;;;;;4952582;29;20028;-78
2022/08/20 10:57:56;;;;;;;;;;;20.80;99.90;;;;;;4946947;29;20012;-78
2022/08/20 11:00:21;;;;;;;;;;;20.70;99.90;;;;;;4946553;28;19910;-79
2022/08/20 11:02:47;;;;;;;;;;;20.70;99.90;;;;;;4917305;29;20295;-79
2022/08/20 11:05:13;;;;;;;;;;;20.70;99.90;;;;;;4939145;29;20390;-79
2022/08/20 11:07:40;;;;;;;;;;;20.80;99.90;;;;;;4968213;28;19915;-79
2022/08/20 11:10:06;;;;;;;;;;;20.90;99.90;;;;;;4948606;29;19915;-80
2022/08/20 11:12:32;;;;;;;;;;;21.00;99.90;;;;;;4951081;28;20572;-80
2022/08/20 11:14:57;;;;;;;;;;;21.10;99.90;;;;;;4907566;29;20014;-79
2022/08/20 11:17:26;;;;;;;;;;;21.20;99.90;;;;;;4949898;28;19922;-79
2022/08/20 11:19:52;;;;;;;;;;;21.40;99.90;;;;;;4949812;28;20012;-79
2022/08/20 11:22:17;;;;;;;;;;;21.50;99.90;;;;;;4950904;28;20001;-79
2022/08/20 11:24:43;;;;;;;;;;;21.60;99.90;;;;;;4948148;28;20009;-78
2022/08/20 11:27:09;;;;;;;;;;;21.70;99.90;;;;;;4945254;29;20363;-78
2022/08/20 11:29:38;;;;;;;;;;;21.70;99.90;;;;;;4951588;28;19911;-79
2022/08/20 11:32:04;;;;;;;;;;;21.70;99.90;;;;;;4935336;28;19910;-79
2022/08/20 11:34:30;;;;;;;;;;;21.60;99.90;;;;;;4939682;28;19918;-79
2022/08/20 11:36:57;;;;;;;;;;;21.50;99.90;;;;;;4951180;29;20397;-79
2022/08/20 11:39:24;;;;;;;;;;;21.50;99.90;;;;;;4948983;28;19925;-78
2022/08/20 11:41:49;;;;;;;;;;;21.40;99.90;;;;;;4947521;28;19914;-78
2022/08/20 11:44:15;;;;;;;;;;;21.30;99.90;;;;;;4947879;28;19926;-79
2022/08/20 11:46:40;;;;;;;;;;;21.20;99.90;;;;;;4943428;29;19950;-79
2022/08/20 11:49:06;;;;;;;;;;;21.10;99.90;;;;;;4923734;29;19914;-79
2022/08/20 11:51:32;;;;;;;;;;;20.90;99.90;;;;;;4950826;28;19958;-78
2022/08/20 11:53:57;;;;;;;;;;;20.80;99.90;;;;;;4944240;29;20429;-78
2022/08/20 11:56:23;;;;;;;;;;;20.70;99.90;;;;;;4940703;29;19932;-78
2022/08/20 11:58:49;;;;;;;;;;;20.60;99.90;;;;;;4948545;28;20336;-78
2022/08/20 12:01:14;;;;;;;;;;;20.50;99.90;;;;;;4942495;29;19942;-78
2022/08/20 12:03:40;;;;;;;;;;;20.40;99.90;;;;;;4950595;28;19925;-78
2022/08/20 12:06:06;;;;;;;;;;;20.30;99.90;;;;;;4949086;28;19913;-79
2022/08/20 12:08:31;;;;;;;;;;;20.20;99.90;;;;;;4943977;28;19918;-79
2022/08/20 12:10:58;;;;;;;;;;;20.10;99.90;;;;;;4950631;29;19961;-78
2022/08/20 12:13:24;;;;;;;;;;;20.10;99.90;;;;;;4950269;28;19914;-79
2022/08/20 12:15:52;;;;;;;;;;;20.00;99.90;;;;;;4946689;29;20005;-78
2022/08/20 12:18:18;;;;;;;;;;;19.90;99.90;;;;;;4952099;28;19945;-80
2022/08/20 12:20:43;;;;;;;;;;;19.70;99.90;;;;;;4951954;28;19957;-80
2022/08/20 12:23:09;;;;;;;;;;;19.70;99.90;;;;;;4952595;28;19945;-80
2022/08/20 12:25:35;;;;;;;;;;;19.60;99.90;;;;;;4935773;29;19914;-80
2022/08/20 12:28:01;;;;;;;;;;;19.50;99.90;;;;;;4964050;28;19914;-80
2022/08/20 12:30:26;;;;;;;;;;;19.50;99.90;;;;;;4946861;29;20167;-80
2022/08/20 12:32:52;;;;;;;;;;;19.40;99.90;;;;;;4952202;28;19917;-80
2022/08/20 12:35:18;;;;;;;;;;;19.50;99.90;;;;;;4937005;29;19913;-79
2022/08/20 12:37:44;;;;;;;;;;;19.50;99.90;;;;;;4954394;28;19911;-79
2022/08/20 12:40:12;;;;;;;;;;;19.60;99.90;;;;;;4944310;28;20390;-80
2022/08/20 12:42:38;;;;;;;;;;;19.70;99.90;;;;;;4942126;28;20426;-80
2022/08/20 12:45:04;;;;;;;;;;;19.80;99.90;;;;;;4933808;29;19919;-80
2022/08/20 12:47:31;;;;;;;;;;;19.90;99.90;;;;;;4952013;29;19938;-80
2022/08/20 12:49:59;;;;;;;;;;;20.00;99.90;;;;;;4948162;28;19977;-81
2022/08/20 12:52:26;;;;;;;;;;;20.20;99.90;;;;;;4951734;28;20002;-81
2022/08/20 12:54:52;;;;;;;;;;;20.20;99.90;;;;;;4943915;28;19910;-81
2022/08/20 12:57:22;;;;;;;;;;;20.30;99.90;;;;;;4953198;29;19914;-80
2022/08/20 12:59:48;;;;;;;;;;;20.40;99.90;;;;;;4952002;28;19911;-81
2022/08/20 13:02:16;;;;;;;;;;;20.50;99.90;;;;;;4945684;29;20276;-82
2022/08/20 13:04:41;;;;;;;;;;;20.60;99.90;;;;;;4938715;29;19965;-81
2022/08/20 13:07:09;;;;;;;;;;;20.70;99.90;;;;;;4954500;28;19922;-79
2022/08/20 13:09:34;;;;;;;;;;;20.80;99.90;;;;;;4954955;28;19914;-79
2022/08/20 13:12:00;;;;;;;;;;;20.90;99.90;;;;;;4955690;28;19921;-79
2022/08/20 13:14:26;;;;;;;;;;;21.00;99.90;;;;;;4948192;28;19921;-81
2022/08/20 13:16:58;;;;;;;;;;;21.00;99.90;;;;;;4935595;29;19910;-80
2022/08/20 13:19:25;;;;;;;;;;;21.00;99.90;;;;;;4945476;28;19981;-81
2022/08/20 13:21:50;;;;;;;;;;;21.00;99.90;;;;;;4955616;29;19917;-80
2022/08/20 13:24:16;;;;;;;;;;;20.90;99.90;;;;;;4949751;28;19919;-81
2022/08/20 13:26:42;;;;;;;;;;;20.90;99.90;;;;;;4952627;29;20001;-79
2022/08/20 13:29:07;;;;;;;;;;;20.80;99.90;;;;;;4949876;28;19922;-78
2022/08/20 13:31:33;;;;;;;;;;;20.70;99.90;;;;;;4958813;29;19926;-80
2022/08/20 13:33:59;;;;;;;;;;;20.80;99.90;;;;;;4945665;28;20364;-80
2022/08/20 13:36:24;;;;;;;;;;;20.80;99.90;;;;;;4953990;28;19921;-78
2022/08/20 13:38:50;;;;;;;;;;;20.70;99.90;;;;;;4938722;29;19914;-79
2022/08/20 13:41:16;;;;;;;;;;;20.70;99.90;;;;;;4954221;29;20371;-79
2022/08/20 13:43:41;;;;;;;;;;;20.60;99.90;;;;;;4954277;28;20593;-79
2022/08/20 13:46:07;;;;;;;;;;;20.60;99.90;;;;;;4955932;28;20349;-80
2022/08/20 13:48:33;;;;;;;;;;;20.50;99.90;;;;;;4947537;29;20014;-80
2022/08/20 13:50:58;;;;;;;;;;;20.40;99.90;;;;;;4953033;29;19914;-79
2022/08/20 13:53:24;;;;;;;;;;;20.30;99.90;;;;;;4944746;28;20001;-78
2022/08/20 13:55:50;;;;;;;;;;;20.10;99.90;;;;;;4952866;29;19917;-80
2022/08/20 13:58:16;;;;;;;;;;;19.90;99.90;;;;;;4956191;28;20381;-79
2022/08/20 14:00:43;;;;;;;;;;;19.70;99.90;;;;;;4946265;29;19906;-80
2022/08/20 14:03:09;;;;;;;;;;;19.50;99.90;;;;;;4954421;28;19914;-80
2022/08/20 14:05:35;;;;;;;;;;;19.40;99.90;;;;;;4940446;28;19911;-82
2022/08/20 14:08:20;;;;;;;;;;;19.40;99.90;;;;;;4950308;28;19999;-79
2022/08/20 14:10:49;;;;;;;;;;;19.30;99.90;;;;;;4955303;28;20017;-80
2022/08/20 14:13:15;;;;;;;;;;;19.10;99.90;;;;;;4931367;29;20405;-80
2022/08/20 14:15:42;;;;;;;;;;;18.90;99.90;;;;;;4946063;28;19921;-80
2022/08/20 14:18:08;;;;;;;;;;;18.70;99.90;;;;;;4957178;28;20519;-80
2022/08/20 14:20:33;;;;;;;;;;;18.50;99.90;;;;;;4945714;28;20241;-81